Time;durP1;ratioP1;P1;durP2;ratioP2;P2;SDS_P1;SDS_P2;PMS_P1;PMS_P2;Temp;Humidity;BMP_temperature;BMP_pressure;BME280_temperature;BME280_humidity;BME280_pressure;Samples;Min_cycle;Max_cycle;Signal;HPM_P1;HPM_P2
2022/09/07 00:01:15;;;;;;;;;;;;;;;;;;4969695;28;680;-71
2022/09/07 00:03:41;;;;;;;;;;;;;;;;;;4968315;28;1287;-72
2022/09/07 00:06:08;;;;;;;;;;;;;;;;;;4969887;28;873;-72
2022/09/07 00:08:35;;;;;;;;;;;;;;;;;;4969774;28;977;-73
2022/09/07 00:11:04;;;;;;;;;;;;;;;;;;4969636;28;1927;-72
2022/09/07 00:13:31;;;;;;;;;;;;;;;;;;4968216;28;1376;-71
2022/09/07 00:15:57;;;;;;;;;;;;;;;;;;4971048;28;1075;-71
2022/09/07 00:18:23;;;;;;;;;;;;;;;;;;4971176;28;1088;-71
2022/09/07 00:20:57;;;;;;;;;;;;;;;;;;4969755;28;969;-74
2022/09/07 00:23:23;;;;;;;;;;;;;;;;;;4969311;28;1123;-72
2022/09/07 00:25:49;;;;;;;;;;;;;;;;;;4969559;28;1071;-72
2022/09/07 00:28:16;;;;;;;;;;;;;;;;;;4969543;28;1119;-72
2022/09/07 00:30:43;;;;;;;;;;;;;;;;;;4969364;28;1922;-72
2022/09/07 00:33:09;;;;;;;;;;;;;;;;;;4969286;28;866;-72
2022/09/07 00:35:39;;;;;;;;;;;;;;;;;;4969559;28;1310;-72
2022/09/07 00:38:05;;;;;;;;;;;;;;;;;;4968097;28;1268;-73
2022/09/07 00:40:31;;;;;;;;;;;;;;;;;;4969564;28;1115;-74
2022/09/07 00:42:57;;;;;;;;;;;;;;;;;;4968899;28;925;-74
2022/09/07 00:45:25;;;;;;;;;;;;;;;;;;4969399;28;1308;-73
2022/09/07 00:47:52;;;;;;;;;;;;;;;;;;4968112;28;2528;-71
2022/09/07 00:50:20;;;;;;;;;;;;;;;;;;4972521;28;1918;-72
2022/09/07 00:52:47;;;;;;;;;;;;;;;;;;4987776;28;1496;-72
2022/09/07 00:55:13;;;;;;;;;;;;;;;;;;4985958;28;1381;-72
2022/09/07 00:57:40;;;;;;;;;;;;;;;;;;4972648;28;1062;-72
2022/09/07 01:00:07;;;;;;;;;;;;;;;;;;4972479;28;1066;-71
2022/09/07 01:02:34;;;;;;;;;;;;;;;;;;4970988;28;1242;-72
2022/09/07 01:05:05;;;;;;;;;;;;;;;;;;4972319;28;1285;-72
2022/09/07 01:07:31;;;;;;;;;;;;;;;;;;4972392;28;1015;-72
2022/09/07 01:09:57;;;;;;;;;;;;;;;;;;4972362;28;1910;-72
2022/09/07 01:12:24;;;;;;;;;;;;;;;;;;4972297;28;933;-72
2022/09/07 01:14:50;;;;;;;;;;;;;;;;;;4972113;28;1329;-72
2022/09/07 01:17:19;;;;;;;;;;;;;;;;;;4972425;28;925;-72
2022/09/07 01:19:57;;;;;;;;;;;;;;;;;;4972041;28;1126;-72
2022/09/07 01:22:31;;;;;;;;;;;;;;;;;;4972038;28;1025;-71
2022/09/07 01:25:00;;;;;;;;;;;;;;;;;;4971998;28;1387;-72
2022/09/07 01:27:30;;;;;;;;;;;;;;;;;;4970933;28;1199;-73
2022/09/07 01:29:59;;;;;;;;;;;;;;;;;;4970771;28;1915;-72
2022/09/07 01:32:26;;;;;;;;;;;;;;;;;;4971824;28;902;-73
2022/09/07 01:34:53;;;;;;;;;;;;;;;;;;4972078;28;1359;-71
2022/09/07 01:37:21;;;;;;;;;;;;;;;;;;4972038;28;794;-71
2022/09/07 01:39:48;;;;;;;;;;;;;;;;;;4970749;28;1155;-72
2022/09/07 01:42:14;;;;;;;;;;;;;;;;;;4971777;28;1099;-72
2022/09/07 01:44:43;;;;;;;;;;;;;;;;;;4971788;28;1395;-72
2022/09/07 01:47:11;;;;;;;;;;;;;;;;;;4972389;28;1130;-71
2022/09/07 01:49:38;;;;;;;;;;;;;;;;;;4972031;28;1068;-72
2022/09/07 01:52:06;;;;;;;;;;;;;;;;;;4970684;28;1927;-73
2022/09/07 01:54:32;;;;;;;;;;;;;;;;;;4971950;28;1262;-72
2022/09/07 01:57:01;;;;;;;;;;;;;;;;;;4951946;28;1084;-72
2022/09/07 01:59:28;;;;;;;;;;;;;;;;;;4952351;28;1101;-71
2022/09/07 02:01:57;;;;;;;;;;;;;;;;;;4950610;29;1432;-72
2022/09/07 02:04:34;;;;;;;;;;;;;;;;;;4952593;28;1312;-71
2022/09/07 02:07:02;;;;;;;;;;;;;;;;;;4950847;29;1045;-72
2022/09/07 02:09:29;;;;;;;;;;;;;;;;;;4952313;29;1001;-72
2022/09/07 02:11:55;;;;;;;;;;;;;;;;;;4966609;28;1981;-72
2022/09/07 02:14:22;;;;;;;;;;;;;;;;;;4951981;28;1281;-71
2022/09/07 02:16:48;;;;;;;;;;;;;;;;;;4952103;28;1146;-71
2022/09/07 02:19:18;;;;;;;;;;;;;;;;;;4952052;28;1084;-72
2022/09/07 02:21:45;;;;;;;;;;;;;;;;;;4951733;29;1024;-72
2022/09/07 02:24:12;;;;;;;;;;;;;;;;;;4950867;28;1303;-71
2022/09/07 02:26:38;;;;;;;;;;;;;;;;;;4950699;29;1447;-72
2022/09/07 02:29:05;;;;;;;;;;;;;;;;;;4952020;29;1060;-71
2022/09/07 02:31:31;;;;;;;;;;;;;;;;;;4951557;29;1918;-71
2022/09/07 02:33:57;;;;;;;;;;;;;;;;;;4950517;28;1338;-72
2022/09/07 02:36:26;;;;;;;;;;;;;;;;;;4951934;29;965;-72
2022/09/07 02:38:52;;;;;;;;;;;;;;;;;;4950556;28;1242;-72
2022/09/07 02:41:28;;;;;;;;;;;;;;;;;;4964501;28;1088;-72
2022/09/07 02:43:54;;;;;;;;;;;;;;;;;;4970626;28;1339;-72
2022/09/07 02:46:21;;;;;;;;;;;;;;;;;;4969827;28;1293;-72
2022/09/07 02:48:50;;;;;;;;;;;;;;;;;;4970880;28;1108;-69
2022/09/07 02:51:18;;;;;;;;;;;;;;;;;;4970515;28;1914;-71
2022/09/07 02:53:52;;;;;;;;;;;;;;;;;;4973122;28;1491;-72
2022/09/07 02:56:29;;;;;;;;;;;;;;;;;;4956680;28;1240;-72
2022/09/07 02:58:58;;;;;;;;;;;;;;;;;;4951381;28;791;-72
2022/09/07 03:01:28;;;;;;;;;;;;;;;;;;4951139;29;1123;-72
2022/09/07 03:03:55;;;;;;;;;;;;;;;;;;4951023;29;1309;-72
2022/09/07 03:06:23;;;;;;;;;;;;;;;;;;4950177;29;1372;-72
2022/09/07 03:08:50;;;;;;;;;;;;;;;;;;4950699;28;894;-72
2022/09/07 03:11:18;;;;;;;;;;;;;;;;;;4951032;29;1907;-70
2022/09/07 03:13:44;;;;;;;;;;;;;;;;;;4951020;29;1408;-71
2022/09/07 03:16:12;;;;;;;;;;;;;;;;;;4951457;29;1143;-72
2022/09/07 03:18:38;;;;;;;;;;;;;;;;;;4951259;29;879;-72
2022/09/07 03:21:04;;;;;;;;;;;;;;;;;;4950871;29;1072;-72
2022/09/07 03:23:30;;;;;;;;;;;;;;;;;;4950915;29;1325;-72
2022/09/07 03:25:56;;;;;;;;;;;;;;;;;;4951163;29;1072;-71
2022/09/07 03:28:24;;;;;;;;;;;;;;;;;;4951193;29;889;-71
2022/09/07 03:30:50;;;;;;;;;;;;;;;;;;4950778;29;1919;-72
2022/09/07 03:33:16;;;;;;;;;;;;;;;;;;4950751;28;1072;-72
2022/09/07 03:35:43;;;;;;;;;;;;;;;;;;4950992;29;1354;-72
2022/09/07 03:38:09;;;;;;;;;;;;;;;;;;4949702;29;1247;-72
2022/09/07 03:40:35;;;;;;;;;;;;;;;;;;4950917;29;725;-72
2022/09/07 03:43:01;;;;;;;;;;;;;;;;;;4950731;28;1123;-71
2022/09/07 03:45:29;;;;;;;;;;;;;;;;;;4949659;29;1267;-72
2022/09/07 03:47:55;;;;;;;;;;;;;;;;;;4949974;29;1270;-72
2022/09/07 03:50:21;;;;;;;;;;;;;;;;;;4952707;29;1123;-72
2022/09/07 03:52:47;;;;;;;;;;;;;;;;;;4950960;29;1985;-72
2022/09/07 03:55:13;;;;;;;;;;;;;;;;;;4955106;28;1290;-71
2022/09/07 03:57:41;;;;;;;;;;;;;;;;;;4969925;28;1084;-71
2022/09/07 04:00:08;;;;;;;;;;;;;;;;;;4969818;28;1076;-71
2022/09/07 04:02:41;;;;;;;;;;;;;;;;;;4969438;28;942;-71
2022/09/07 04:05:08;;;;;;;;;;;;;;;;;;4969691;28;1343;-71
2022/09/07 04:07:34;;;;;;;;;;;;;;;;;;4969726;28;1084;-72
2022/09/07 04:10:00;;;;;;;;;;;;;;;;;;4968641;28;1477;-70
2022/09/07 04:12:26;;;;;;;;;;;;;;;;;;4969586;28;1919;-71
2022/09/07 04:14:52;;;;;;;;;;;;;;;;;;4955081;28;1600;-72
2022/09/07 04:17:19;;;;;;;;;;;;;;;;;;4969587;28;1372;-71
2022/09/07 04:19:46;;;;;;;;;;;;;;;;;;4969440;28;917;-71
2022/09/07 04:22:12;;;;;;;;;;;;;;;;;;4970857;28;1502;-71
2022/09/07 04:24:38;;;;;;;;;;;;;;;;;;4971969;28;1499;-72
2022/09/07 04:27:05;;;;;;;;;;;;;;;;;;4969354;28;1339;-72
2022/09/07 04:29:31;;;;;;;;;;;;;;;;;;4962696;28;1561;-71
2022/09/07 04:31:57;;;;;;;;;;;;;;;;;;4960621;28;1919;-70
2022/09/07 04:34:23;;;;;;;;;;;;;;;;;;4972117;28;1478;-70
2022/09/07 04:36:51;;;;;;;;;;;;;;;;;;4963672;28;1249;-71
2022/09/07 04:39:17;;;;;;;;;;;;;;;;;;4963928;28;1423;-71
2022/09/07 04:41:43;;;;;;;;;;;;;;;;;;4971501;28;1455;-70
2022/09/07 04:44:09;;;;;;;;;;;;;;;;;;4970826;28;1428;-71
2022/09/07 04:46:36;;;;;;;;;;;;;;;;;;4965881;28;1657;-71
2022/09/07 04:49:03;;;;;;;;;;;;;;;;;;4953400;28;1432;-71
2022/09/07 04:51:30;;;;;;;;;;;;;;;;;;4969966;28;1962;-71
2022/09/07 04:53:58;;;;;;;;;;;;;;;;;;4969428;28;1348;-71
2022/09/07 04:56:24;;;;;;;;;;;;;;;;;;4975324;28;1574;-71
2022/09/07 04:58:51;;;;;;;;;;;;;;;;;;5022517;28;1585;-71
2022/09/07 05:01:17;;;;;;;;;;;;;;;;;;4972429;28;1134;-70
2022/09/07 05:03:44;;;;;;;;;;;;;;;;;;4972163;28;1379;-71
2022/09/07 05:06:10;;;;;;;;;;;;;;;;;;4972795;28;783;-71
2022/09/07 05:08:36;;;;;;;;;;;;;;;;;;4971210;28;1305;-72
2022/09/07 05:11:04;;;;;;;;;;;;;;;;;;4971667;28;1976;-71
2022/09/07 05:13:30;;;;;;;;;;;;;;;;;;4971622;28;1380;-70
2022/09/07 05:15:57;;;;;;;;;;;;;;;;;;4971802;28;1327;-72
2022/09/07 05:18:23;;;;;;;;;;;;;;;;;;4972417;28;937;-73
2022/09/07 05:20:49;;;;;;;;;;;;;;;;;;4970836;28;1250;-72
2022/09/07 05:23:16;;;;;;;;;;;;;;;;;;4972103;28;1112;-71
2022/09/07 05:25:42;;;;;;;;;;;;;;;;;;4966574;28;1348;-69
2022/09/07 05:28:10;;;;;;;;;;;;;;;;;;4946346;28;1347;-72
2022/09/07 05:30:36;;;;;;;;;;;;;;;;;;4963594;28;1310;-72
2022/09/07 05:33:02;;;;;;;;;;;;;;;;;;4967231;28;1924;-73
2022/09/07 05:35:29;;;;;;;;;;;;;;;;;;4962674;28;1435;-72
2022/09/07 05:37:55;;;;;;;;;;;;;;;;;;4958343;28;1337;-75
2022/09/07 05:40:21;;;;;;;;;;;;;;;;;;4972032;28;1138;-74
2022/09/07 05:42:48;;;;;;;;;;;;;;;;;;4970329;28;1081;-74
2022/09/07 05:45:15;;;;;;;;;;;;;;;;;;4971731;28;1302;-74
2022/09/07 05:47:41;;;;;;;;;;;;;;;;;;4967809;28;1478;-74
2022/09/07 05:50:08;;;;;;;;;;;;;;;;;;4989276;28;1717;-73
2022/09/07 05:52:34;;;;;;;;;;;;;;;;;;4968198;28;1975;-72
2022/09/07 05:55:01;;;;;;;;;;;;;;;;;;4968464;28;1437;-72
2022/09/07 05:57:27;;;;;;;;;;;;;;;;;;4964332;28;1470;-72
2022/09/07 05:59:53;;;;;;;;;;;;;;;;;;4966726;28;1409;-72
2022/09/07 06:02:21;;;;;;;;;;;;;;;;;;4962612;28;1395;-73
2022/09/07 06:04:47;;;;;;;;;;;;;;;;;;4970705;28;1360;-71
2022/09/07 06:07:13;;;;;;;;;;;;;;;;;;4969637;28;1422;-72
2022/09/07 06:09:39;;;;;;;;;;;;;;;;;;4970855;28;1126;-72
2022/09/07 06:12:06;;;;;;;;;;;;;;;;;;4969320;28;1914;-73
2022/09/07 06:14:32;;;;;;;;;;;;;;;;;;4970488;28;1310;-74
2022/09/07 06:16:58;;;;;;;;;;;;;;;;;;4968187;28;1510;-73
2022/09/07 06:19:26;;;;;;;;;;;;;;;;;;4970547;28;1075;-72
2022/09/07 06:21:52;;;;;;;;;;;;;;;;;;4968576;28;1380;-72
2022/09/07 06:24:18;;;;;;;;;;;;;;;;;;4969881;28;1337;-71
2022/09/07 06:26:44;;;;;;;;;;;;;;;;;;4969611;28;791;-71
2022/09/07 06:29:11;;;;;;;;;;;;;;;;;;4969883;28;1060;-72
2022/09/07 06:31:37;;;;;;;;;;;;;;;;;;4969750;28;1978;-71
2022/09/07 06:34:03;;;;;;;;;;;;;;;;;;4968931;28;1502;-71
2022/09/07 06:36:31;;;;;;;;;;;;;;;;;;4973190;28;1138;-72
2022/09/07 06:39:00;;;;;;;;;;;;;;;;;;4965653;28;1742;-71
2022/09/07 06:41:27;;;;;;;;;;;;;;;;;;4969297;28;1063;-71
2022/09/07 06:43:53;;;;;;;;;;;;;;;;;;4968601;28;1356;-72
2022/09/07 06:46:19;;;;;;;;;;;;;;;;;;4968484;28;1528;-72
2022/09/07 06:48:46;;;;;;;;;;;;;;;;;;4969471;28;1145;-71
2022/09/07 06:51:13;;;;;;;;;;;;;;;;;;4968458;28;1159;-72
2022/09/07 06:53:41;;;;;;;;;;;;;;;;;;4969653;28;1978;-73
2022/09/07 06:56:08;;;;;;;;;;;;;;;;;;4966984;28;1457;-73
2022/09/07 06:58:34;;;;;;;;;;;;;;;;;;4961675;28;1043;-74
2022/09/07 07:01:04;;;;;;;;;;;;;;;;;;4970883;28;1459;-74
2022/09/07 07:03:31;;;;;;;;;;;;;;;;;;4966991;28;1385;-74
2022/09/07 07:05:57;;;;;;;;;;;;;;;;;;4972051;28;1452;-74
2022/09/07 07:08:24;;;;;;;;;;;;;;;;;;4973739;28;1454;-73
2022/09/07 07:10:51;;;;;;;;;;;;;;;;;;4961328;28;1134;-74
2022/09/07 07:13:18;;;;;;;;;;;;;;;;;;4969254;28;1984;-74
2022/09/07 07:15:44;;;;;;;;;;;;;;;;;;4967874;28;1430;-74
2022/09/07 07:18:11;;;;;;;;;;;;;;;;;;4961638;28;1133;-74
2022/09/07 07:20:37;;;;;;;;;;;;;;;;;;4968340;28;1620;-74
2022/09/07 07:23:04;;;;;;;;;;;;;;;;;;4969227;28;1535;-75
2022/09/07 07:25:30;;;;;;;;;;;;;;;;;;4963016;28;1265;-73
2022/09/07 07:27:58;;;;;;;;;;;;;;;;;;4970126;28;953;-72
2022/09/07 07:30:24;;;;;;;;;;;;;;;;;;4968883;28;1060;-72
2022/09/07 07:32:51;;;;;;;;;;;;;;;;;;4958877;28;1918;-73
2022/09/07 07:35:17;;;;;;;;;;;;;;;;;;4968637;28;1363;-72
2022/09/07 07:37:43;;;;;;;;;;;;;;;;;;4969061;28;1071;-72
2022/09/07 07:40:10;;;;;;;;;;;;;;;;;;4968769;28;1072;-73
2022/09/07 07:42:38;;;;;;;;;;;;;;;;;;4968915;28;846;-73
2022/09/07 07:45:07;;;;;;;;;;;;;;;;;;4968792;28;1340;-72
2022/09/07 07:47:34;;;;;;;;;;;;;;;;;;4961322;28;1425;-72
2022/09/07 07:50:00;;;;;;;;;;;;;;;;;;4970085;28;1210;-71
2022/09/07 07:52:31;;;;;;;;;;;;;;;;;;4975451;28;1910;-72
2022/09/07 07:54:58;;;;;;;;;;;;;;;;;;4987863;28;1383;-72
2022/09/07 07:57:24;;;;;;;;;;;;;;;;;;4976176;28;1497;-72
2022/09/07 07:59:50;;;;;;;;;;;;;;;;;;4966401;28;1266;-72
2022/09/07 08:02:18;;;;;;;;;;;;;;;;;;4968552;28;1018;-72
2022/09/07 08:04:44;;;;;;;;;;;;;;;;;;4981003;28;1428;-74
2022/09/07 08:07:10;;;;;;;;;;;;;;;;;;4967919;28;1741;-75
2022/09/07 08:09:37;;;;;;;;;;;;;;;;;;4966568;28;1394;-75
2022/09/07 08:12:03;;;;;;;;;;;;;;;;;;4967925;28;1978;-75
2022/09/07 08:14:29;;;;;;;;;;;;;;;;;;4967492;28;1412;-72
2022/09/07 08:16:56;;;;;;;;;;;;;;;;;;4968410;28;1198;-73
2022/09/07 08:19:23;;;;;;;;;;;;;;;;;;4968542;28;898;-71
2022/09/07 08:21:49;;;;;;;;;;;;;;;;;;4967657;28;1107;-73
2022/09/07 08:24:16;;;;;;;;;;;;;;;;;;4966904;28;1426;-73
2022/09/07 08:26:42;;;;;;;;;;;;;;;;;;4967951;28;1197;-74
2022/09/07 08:29:08;;;;;;;;;;;;;;;;;;4967303;28;1503;-73
2022/09/07 08:31:34;;;;;;;;;;;;;;;;;;4967532;28;1146;-74
2022/09/07 08:34:00;;;;;;;;;;;;;;;;;;4968197;28;1914;-73
2022/09/07 08:36:30;;;;;;;;;;;;;;;;;;4966869;28;1375;-73
2022/09/07 08:38:56;;;;;;;;;;;;;;;;;;4968287;28;1068;-74
2022/09/07 08:41:31;;;;;;;;;;;;;;;;;;4967964;28;957;-72
2022/09/07 08:43:58;;;;;;;;;;;;;;;;;;4968166;28;1396;-74
2022/09/07 08:46:27;;;;;;;;;;;;;;;;;;4967154;28;1391;-73
2022/09/07 08:48:53;;;;;;;;;;;;;;;;;;4965994;28;1403;-74
2022/09/07 08:51:21;;;;;;;;;;;;;;;;;;4953177;28;1450;-73
2022/09/07 08:53:48;;;;;;;;;;;;;;;;;;4966975;28;1978;-74
2022/09/07 08:56:16;;;;;;;;;;;;;;;;;;4963267;28;1668;-73
2022/09/07 08:58:43;;;;;;;;;;;;;;;;;;4964733;28;1459;-73
2022/09/07 09:01:10;;;;;;;;;;;;;;;;;;4950017;28;1169;-73
2022/09/07 09:03:37;;;;;;;;;;;;;;;;;;4953615;28;1422;-72
2022/09/07 09:06:04;;;;;;;;;;;;;;;;;;4974884;28;1335;-73
2022/09/07 09:08:33;;;;;;;;;;;;;;;;;;4968686;28;1522;-73
2022/09/07 09:11:01;;;;;;;;;;;;;;;;;;4969334;28;1465;-73
2022/09/07 09:13:31;;;;;;;;;;;;;;;;;;4975175;28;1914;-73
2022/09/07 09:15:58;;;;;;;;;;;;;;;;;;4968565;28;1339;-74
2022/09/07 09:18:30;;;;;;;;;;;;;;;;;;4969845;28;1405;-74
2022/09/07 09:20:57;;;;;;;;;;;;;;;;;;4969549;28;1381;-74
2022/09/07 09:23:24;;;;;;;;;;;;;;;;;;4959578;28;1385;-74
2022/09/07 09:25:51;;;;;;;;;;;;;;;;;;4970343;28;1263;-73
2022/09/07 09:28:19;;;;;;;;;;;;;;;;;;4966785;28;1460;-74
2022/09/07 09:30:46;;;;;;;;;;;;;;;;;;4953145;28;1165;-72
2022/09/07 09:33:13;;;;;;;;;;;;;;;;;;4951359;29;1918;-75
2022/09/07 09:35:40;;;;;;;;;;;;;;;;;;4951604;29;1323;-72
2022/09/07 09:38:12;;;;;;;;;;;;;;;;;;4950341;29;1306;-73
2022/09/07 09:40:38;;;;;;;;;;;;;;;;;;4969116;28;1410;-74
2022/09/07 09:43:05;;;;;;;;;;;;;;;;;;4961149;28;1599;-75
2022/09/07 09:45:33;;;;;;;;;;;;;;;;;;4970875;28;1305;-75
2022/09/07 09:47:59;;;;;;;;;;;;;;;;;;4969096;28;1542;-74
2022/09/07 09:50:26;;;;;;;;;;;;;;;;;;4970742;28;1087;-74
2022/09/07 09:52:53;;;;;;;;;;;;;;;;;;4970480;28;1918;-74
2022/09/07 09:55:26;;;;;;;;;;;;;;;;;;4970942;28;1358;-75
2022/09/07 09:57:53;;;;;;;;;;;;;;;;;;4969350;28;1590;-75
2022/09/07 10:00:20;;;;;;;;;;;;;;;;;;4961747;28;1393;-75
2022/09/07 10:02:59;;;;;;;;;;;;;;;;;;4968578;28;1244;-73
2022/09/07 10:05:26;;;;;;;;;;;;;;;;;;4970473;28;1329;-74
2022/09/07 10:07:53;;;;;;;;;;;;;;;;;;4970308;28;1227;-74
2022/09/07 10:10:19;;;;;;;;;;;;;;;;;;4969665;28;1318;-74
2022/09/07 10:12:45;;;;;;;;;;;;;;;;;;4968281;28;1977;-73
2022/09/07 10:15:20;;;;;;;;;;;;;;;;;;4960485;28;1438;-74
2022/09/07 10:17:48;;;;;;;;;;;;;;;;;;4969680;28;1100;-73
2022/09/07 10:20:29;;;;;;;;;;;;;;;;;;4968996;28;1463;-74
2022/09/07 10:22:57;;;;;;;;;;;;;;;;;;4952056;28;1158;-74
2022/09/07 10:25:28;;;;;;;;;;;;;;;;;;4966339;28;1420;-75
2022/09/07 10:28:00;;;;;;;;;;;;;;;;;;4960389;28;1515;-74
2022/09/07 10:30:27;;;;;;;;;;;;;;;;;;4952256;28;1131;-74
2022/09/07 10:32:55;;;;;;;;;;;;;;;;;;4968165;28;1911;-74
2022/09/07 10:35:25;;;;;;;;;;;;;;;;;;4962316;28;1298;-75
2022/09/07 10:37:53;;;;;;;;;;;;;;;;;;4969012;28;1147;-74
2022/09/07 10:40:23;;;;;;;;;;;;;;;;;;4968701;28;1585;-75
2022/09/07 10:42:51;;;;;;;;;;;;;;;;;;4968107;28;1453;-74
2022/09/07 10:45:18;;;;;;;;;;;;;;;;;;4965867;28;1397;-74
2022/09/07 10:47:47;;;;;;;;;;;;;;;;;;4963078;28;1631;-74
2022/09/07 10:50:15;;;;;;;;;;;;;;;;;;4969676;28;1174;-73
2022/09/07 10:52:43;;;;;;;;;;;;;;;;;;4969437;28;1060;-74
2022/09/07 10:55:10;;;;;;;;;;;;;;;;;;4962904;28;1970;-73
2022/09/07 10:57:41;;;;;;;;;;;;;;;;;;4963625;28;1586;-73
2022/09/07 11:00:09;;;;;;;;;;;;;;;;;;4969589;28;1297;-74
2022/09/07 11:02:40;;;;;;;;;;;;;;;;;;4968676;28;1479;-75
2022/09/07 11:05:09;;;;;;;;;;;;;;;;;;4984644;28;1471;-73
2022/09/07 11:07:41;;;;;;;;;;;;;;;;;;5012711;28;1402;-74
2022/09/07 11:10:12;;;;;;;;;;;;;;;;;;4974507;28;1375;-73
2022/09/07 11:12:39;;;;;;;;;;;;;;;;;;4968362;28;1439;-73
2022/09/07 11:15:08;;;;;;;;;;;;;;;;;;4969351;28;1977;-73
2022/09/07 11:17:40;;;;;;;;;;;;;;;;;;4969135;28;1077;-74
2022/09/07 11:20:08;;;;;;;;;;;;;;;;;;4966894;28;1495;-74
2022/09/07 11:22:35;;;;;;;;;;;;;;;;;;4958763;28;1535;-72
2022/09/07 11:25:04;;;;;;;;;;;;;;;;;;4966754;28;1595;-74
2022/09/07 11:27:32;;;;;;;;;;;;;;;;;;4968950;28;938;-73
2022/09/07 11:29:59;;;;;;;;;;;;;;;;;;4968147;28;1056;-73
2022/09/07 11:32:25;;;;;;;;;;;;;;;;;;4967403;28;1278;-73
2022/09/07 11:34:53;;;;;;;;;;;;;;;;;;4969081;28;1969;-74
2022/09/07 11:37:20;;;;;;;;;;;;;;;;;;4968948;28;988;-74
2022/09/07 11:39:48;;;;;;;;;;;;;;;;;;4968369;28;1739;-73
2022/09/07 11:42:15;;;;;;;;;;;;;;;;;;4968515;28;1170;-74
2022/09/07 11:44:44;;;;;;;;;;;;;;;;;;4967431;28;1341;-74
2022/09/07 11:47:12;;;;;;;;;;;;;;;;;;4967507;28;1407;-73
2022/09/07 11:49:38;;;;;;;;;;;;;;;;;;4971014;28;1134;-74
2022/09/07 11:52:04;;;;;;;;;;;;;;;;;;4968357;28;1120;-74
2022/09/07 11:54:32;;;;;;;;;;;;;;;;;;4967579;28;1926;-74
2022/09/07 11:57:00;;;;;;;;;;;;;;;;;;4964754;28;1205;-73
2022/09/07 11:59:29;;;;;;;;;;;;;;;;;;4965378;28;1518;-73
2022/09/07 12:02:01;;;;;;;;;;;;;;;;;;4952146;28;1138;-74
2022/09/07 12:04:45;;;;;;;;;;;;;;;;;;4952156;28;1437;-74
2022/09/07 12:07:16;;;;;;;;;;;;;;;;;;4966125;28;1262;-74
2022/09/07 12:09:46;;;;;;;;;;;;;;;;;;4968509;28;839;-74
2022/09/07 12:12:16;;;;;;;;;;;;;;;;;;4968143;28;1055;-73
2022/09/07 12:14:44;;;;;;;;;;;;;;;;;;4967236;28;1915;-74
2022/09/07 12:17:15;;;;;;;;;;;;;;;;;;4968381;28;1064;-74
2022/09/07 12:19:41;;;;;;;;;;;;;;;;;;4966236;28;1383;-74
2022/09/07 12:22:17;;;;;;;;;;;;;;;;;;4967354;28;1360;-74
2022/09/07 12:24:44;;;;;;;;;;;;;;;;;;4966865;28;1412;-74
2022/09/07 12:27:11;;;;;;;;;;;;;;;;;;4966027;28;1510;-74
2022/09/07 12:29:37;;;;;;;;;;;;;;;;;;4966568;28;1419;-74
2022/09/07 12:32:04;;;;;;;;;;;;;;;;;;4967565;28;1162;-74
2022/09/07 12:34:39;;;;;;;;;;;;;;;;;;4968340;28;1911;-75
2022/09/07 12:37:21;;;;;;;;;;;;;;;;;;4968278;28;746;-74
2022/09/07 12:39:47;;;;;;;;;;;;;;;;;;4967833;28;1204;-74
2022/09/07 12:42:15;;;;;;;;;;;;;;;;;;4963528;28;1501;-74
2022/09/07 12:44:41;;;;;;;;;;;;;;;;;;4963729;28;1472;-75
2022/09/07 12:47:22;;;;;;;;;;;;;;;;;;4971897;28;1562;-75
2022/09/07 12:50:07;;;;;;;;;;;;;;;;;;4975177;28;1314;-76
2022/09/07 12:52:49;;;;;;;;;;;;;;;;;;4979601;28;1258;-75
2022/09/07 12:55:24;;;;;;;;;;;;;;;;;;4971509;28;1977;-73
2022/09/07 12:57:51;;;;;;;;;;;;;;;;;;4971245;28;886;-76
2022/09/07 13:00:18;;;;;;;;;;;;;;;;;;4970762;28;1421;-76
2022/09/07 13:02:54;;;;;;;;;;;;;;;;;;4968378;28;1144;-76
2022/09/07 13:05:23;;;;;;;;;;;;;;;;;;4968904;28;1432;-75
2022/09/07 13:08:01;;;;;;;;;;;;;;;;;;4969383;28;1129;-75
2022/09/07 13:10:29;;;;;;;;;;;;;;;;;;4972528;28;1354;-75
2022/09/07 13:12:58;;;;;;;;;;;;;;;;;;4970438;28;1182;-74
2022/09/07 13:15:32;;;;;;;;;;;;;;;;;;4970230;28;1927;-74
2022/09/07 13:17:58;;;;;;;;;;;;;;;;;;4977350;28;1566;-74
2022/09/07 13:20:29;;;;;;;;;;;;;;;;;;4969904;28;1270;-75
2022/09/07 13:23:19;;;;;;;;;;;;;;;;;;4977904;28;1380;-75
2022/09/07 13:25:47;;;;;;;;;;;;;;;;;;4970507;28;1354;-75
2022/09/07 13:28:15;;;;;;;;;;;;;;;;;;4970542;28;1099;-75
2022/09/07 13:30:46;;;;;;;;;;;;;;;;;;4976629;28;1242;-75
2022/09/07 13:33:31;;;;;;;;;;;;;;;;;;4970475;28;1207;-75
2022/09/07 13:35:59;;;;;;;;;;;;;;;;;;4968996;28;1922;-75
2022/09/07 13:38:25;;;;;;;;;;;;;;;;;;4970585;28;1198;-74
2022/09/07 13:40:53;;;;;;;;;;;;;;;;;;4969287;28;1465;-74
2022/09/07 13:43:20;;;;;;;;;;;;;;;;;;4969065;28;1401;-75
2022/09/07 13:45:47;;;;;;;;;;;;;;;;;;4963279;28;1290;-75
2022/09/07 13:48:14;;;;;;;;;;;;;;;;;;4951562;29;1064;-75
2022/09/07 13:50:42;;;;;;;;;;;;;;;;;;4970119;28;1408;-73
2022/09/07 13:53:27;;;;;;;;;;;;;;;;;;4960217;28;1393;-75
2022/09/07 13:55:55;;;;;;;;;;;;;;;;;;4973253;28;1915;-75
2022/09/07 13:58:23;;;;;;;;;;;;;;;;;;4966691;28;1277;-76
2022/09/07 14:00:50;;;;;;;;;;;;;;;;;;4970224;28;807;-76
2022/09/07 14:03:16;;;;;;;;;;;;;;;;;;4968989;28;1399;-74
2022/09/07 14:05:42;;;;;;;;;;;;;;;;;;4970159;28;1353;-74
2022/09/07 14:08:22;;;;;;;;;;;;;;;;;;4969827;28;1441;-76
2022/09/07 14:10:48;;;;;;;;;;;;;;;;;;4969367;28;1429;-74
2022/09/07 14:13:16;;;;;;;;;;;;;;;;;;4969711;28;1282;-75
2022/09/07 14:15:42;;;;;;;;;;;;;;;;;;4969177;28;1922;-75
2022/09/07 14:18:10;;;;;;;;;;;;;;;;;;4962687;28;1154;-74
2022/09/07 14:20:37;;;;;;;;;;;;;;;;;;4969066;28;1207;-75
2022/09/07 14:23:09;;;;;;;;;;;;;;;;;;4969718;28;1225;-75
2022/09/07 14:25:35;;;;;;;;;;;;;;;;;;4969901;28;1345;-75
2022/09/07 14:28:02;;;;;;;;;;;;;;;;;;4961729;28;2125;-76
2022/09/07 14:30:31;;;;;;;;;;;;;;;;;;4968633;28;1538;-75
2022/09/07 14:32:59;;;;;;;;;;;;;;;;;;4968188;28;2005;-75
2022/09/07 14:35:27;;;;;;;;;;;;;;;;;;4969000;28;1907;-74
2022/09/07 14:37:53;;;;;;;;;;;;;;;;;;4961815;28;1197;-74
2022/09/07 14:40:20;;;;;;;;;;;;;;;;;;4968921;28;1649;-73
2022/09/07 14:42:47;;;;;;;;;;;;;;;;;;4967955;28;1349;-72
2022/09/07 14:45:17;;;;;;;;;;;;;;;;;;4968573;28;1379;-73
2022/09/07 14:47:44;;;;;;;;;;;;;;;;;;4977108;28;1487;-74
2022/09/07 14:50:15;;;;;;;;;;;;;;;;;;4972920;28;1520;-73
2022/09/07 14:52:42;;;;;;;;;;;;;;;;;;4972403;28;862;-75
2022/09/07 14:55:24;;;;;;;;;;;;;;;;;;4969738;28;1935;-75
2022/09/07 14:58:05;;;;;;;;;;;;;;;;;;4959972;28;1765;-73
2022/09/07 15:00:32;;;;;;;;;;;;;;;;;;4963218;28;1426;-73
2022/09/07 15:02:59;;;;;;;;;;;;;;;;;;4969284;28;1051;-73
2022/09/07 15:05:26;;;;;;;;;;;;;;;;;;4963508;28;1411;-72
2022/09/07 15:07:54;;;;;;;;;;;;;;;;;;4960964;28;1459;-74
2022/09/07 15:10:35;;;;;;;;;;;;;;;;;;4950233;29;874;-74
2022/09/07 15:13:01;;;;;;;;;;;;;;;;;;4948712;28;1115;-73
2022/09/07 15:15:29;;;;;;;;;;;;;;;;;;4968129;28;1922;-74
2022/09/07 15:17:55;;;;;;;;;;;;;;;;;;4966576;28;2126;-72
2022/09/07 15:20:39;;;;;;;;;;;;;;;;;;4966246;28;1579;-74
2022/09/07 15:23:06;;;;;;;;;;;;;;;;;;4967304;28;1425;-73
2022/09/07 15:25:32;;;;;;;;;;;;;;;;;;4969860;28;1593;-73
2022/09/07 15:27:58;;;;;;;;;;;;;;;;;;4969154;28;1056;-74
2022/09/07 15:30:26;;;;;;;;;;;;;;;;;;4966891;28;1423;-74
2022/09/07 15:32:52;;;;;;;;;;;;;;;;;;4967587;28;1578;-73
2022/09/07 15:35:18;;;;;;;;;;;;;;;;;;4968627;28;1911;-74
2022/09/07 15:37:45;;;;;;;;;;;;;;;;;;4971080;28;1469;-74
2022/09/07 15:40:16;;;;;;;;;;;;;;;;;;4967754;28;1285;-75
2022/09/07 15:42:42;;;;;;;;;;;;;;;;;;4978334;28;1266;-75
2022/09/07 15:45:08;;;;;;;;;;;;;;;;;;4968749;28;1333;-73
2022/09/07 15:47:35;;;;;;;;;;;;;;;;;;4968858;28;1146;-74
2022/09/07 15:50:01;;;;;;;;;;;;;;;;;;4966608;28;1441;-73
2022/09/07 15:52:27;;;;;;;;;;;;;;;;;;4965658;28;1611;-73
2022/09/07 15:54:55;;;;;;;;;;;;;;;;;;4960731;28;1915;-73
2022/09/07 15:57:21;;;;;;;;;;;;;;;;;;4959895;28;1546;-73
2022/09/07 15:59:47;;;;;;;;;;;;;;;;;;4968119;28;1213;-74
2022/09/07 16:02:13;;;;;;;;;;;;;;;;;;4961938;28;1472;-74
2022/09/07 16:04:39;;;;;;;;;;;;;;;;;;4959178;28;1564;-74
2022/09/07 16:07:06;;;;;;;;;;;;;;;;;;4968078;28;1218;-73
2022/09/07 16:09:32;;;;;;;;;;;;;;;;;;4968824;28;1060;-73
2022/09/07 16:12:00;;;;;;;;;;;;;;;;;;4968956;28;762;-71
2022/09/07 16:14:27;;;;;;;;;;;;;;;;;;4969412;28;1923;-73
2022/09/07 16:16:53;;;;;;;;;;;;;;;;;;4972946;28;886;-73
2022/09/07 16:19:19;;;;;;;;;;;;;;;;;;4975984;28;1151;-73
2022/09/07 16:21:46;;;;;;;;;;;;;;;;;;4975384;28;1068;-73
2022/09/07 16:24:12;;;;;;;;;;;;;;;;;;4975742;28;1267;-73
2022/09/07 16:26:38;;;;;;;;;;;;;;;;;;4975911;28;1009;-73
2022/09/07 16:29:05;;;;;;;;;;;;;;;;;;4975894;28;1020;-73
2022/09/07 16:31:32;;;;;;;;;;;;;;;;;;4975643;28;698;-72
2022/09/07 16:33:58;;;;;;;;;;;;;;;;;;4975904;28;1417;-73
2022/09/07 16:36:24;;;;;;;;;;;;;;;;;;4974249;28;1918;-73
2022/09/07 16:38:54;;;;;;;;;;;;;;;;;;4975738;28;941;-73
2022/09/07 16:41:21;;;;;;;;;;;;;;;;;;4975405;28;736;-72
2022/09/07 16:43:47;;;;;;;;;;;;;;;;;;4978383;28;1484;-72
2022/09/07 16:46:16;;;;;;;;;;;;;;;;;;4995314;28;1135;-72
2022/09/07 16:48:42;;;;;;;;;;;;;;;;;;4995068;28;849;-74
2022/09/07 16:51:09;;;;;;;;;;;;;;;;;;4995188;28;1055;-74
2022/09/07 16:53:35;;;;;;;;;;;;;;;;;;4981104;28;1476;-74
2022/09/07 16:56:02;;;;;;;;;;;;;;;;;;4974800;28;1911;-75
2022/09/07 16:58:29;;;;;;;;;;;;;;;;;;4973543;28;1181;-73
2022/09/07 17:00:55;;;;;;;;;;;;;;;;;;4971444;28;1298;-73
2022/09/07 17:03:22;;;;;;;;;;;;;;;;;;4972243;28;1339;-74
2022/09/07 17:05:48;;;;;;;;;;;;;;;;;;4969090;28;1591;-73
2022/09/07 17:08:15;;;;;;;;;;;;;;;;;;4973257;28;1150;-72
2022/09/07 17:10:41;;;;;;;;;;;;;;;;;;4972026;28;1278;-74